Skaelskor, Denmark
Current Conditions -  °F | °C
As of 6:20 PM on Tuesday 21 Oct 2014 (Local Time) from EKRK Reporting Station
Light Rain Light Rain  
Wind Chill: 12°   Ceiling: 5500
Heat Index: 12°   Visibility: 5mi
Dew Point: 11°   Wind: 9mph
Humidity: 94%   Direction: 160°SSE
Pressure: 29.41"   Gusts: NA
Location:  55.25°N, 11.29°E
Report Text: EKRK 211620Z AUTO 16008KT 8000NDV -RA FEW024/// BKN055///12/11 Q0996
Loading
Personal Weather Stations






























Interactive Weather Map
Tropical Storm Tracking
New forecast layout! Learn more

10-Day Weather Forecast

Advertisements
Track Severe Weather on mobile